OVG weather

Overberg Airport
Overberg, Western Cape, South Africa

Public forecast

Using degrees Celsius for public forecast. Weather courtesy of forecast.io.

METAR (pilot weather report)

Retrieved 2019/03/22 07:00 UTC (56 minutes ago):

FAOB 220700Z AUTO 15004KT //// // ////// 21/15 Q1020

TAF (pilot weather forecast)

Forecast is more than 12 hours old.

Closest forecast is Cape Town International Airport, 89.2 nm (165.1 km) WNW. Retrieved 2019/03/21 18:07 UTC (14 hours ago):

TAF COR FACT 211600Z 2118/2224 18015KT CAVOK TX25/2212Z TN15/2205Z BECMG 2212/2214 18025KT PROB30 TEMPO 2212/2217 16025G35KT